sensor_id;sensor_type;location;lat;lon;timestamp;P1;durP1;ratioP1;P2;durP2;ratioP2
3979;SDS011;2004;52.452;13.120;2022-11-20T00:01:20;14.43;;;9.30;;
3979;SDS011;2004;52.452;13.120;2022-11-20T00:09:12;14.60;;;9.87;;
3979;SDS011;2004;52.452;13.120;2022-11-20T00:17:03;14.13;;;8.80;;
3979;SDS011;2004;52.452;13.120;2022-11-20T00:24:53;18.77;;;9.87;;
3979;SDS011;2004;52.452;13.120;2022-11-20T00:32:44;15.00;;;9.23;;
3979;SDS011;2004;52.452;13.120;2022-11-20T00:40:34;13.13;;;8.60;;
3979;SDS011;2004;52.452;13.120;2022-11-20T00:48:25;12.87;;;8.93;;
3979;SDS011;2004;52.452;13.120;2022-11-20T00:56:17;18.10;;;10.47;;
3979;SDS011;2004;52.452;13.120;2022-11-20T01:04:09;12.53;;;8.40;;
3979;SDS011;2004;52.452;13.120;2022-11-20T01:11:59;17.97;;;9.63;;
3979;SDS011;2004;52.452;13.120;2022-11-20T01:19:50;13.60;;;8.83;;
3979;SDS011;2004;52.452;13.120;2022-11-20T01:27:40;18.07;;;10.40;;
3979;SDS011;2004;52.452;13.120;2022-11-20T01:35:31;13.23;;;9.00;;
3979;SDS011;2004;52.452;13.120;2022-11-20T01:43:21;17.43;;;9.73;;
3979;SDS011;2004;52.452;13.120;2022-11-20T01:51:17;20.73;;;10.50;;
3979;SDS011;2004;52.452;13.120;2022-11-20T01:59:13;18.90;;;11.03;;
3979;SDS011;2004;52.452;13.120;2022-11-20T02:07:05;19.00;;;10.67;;
3979;SDS011;2004;52.452;13.120;2022-11-20T02:14:57;27.03;;;10.10;;
3979;SDS011;2004;52.452;13.120;2022-11-20T02:22:49;21.00;;;12.30;;
3979;SDS011;2004;52.452;13.120;2022-11-20T02:30:49;20.27;;;11.37;;
3979;SDS011;2004;52.452;13.120;2022-11-20T02:38:40;19.57;;;11.03;;
3979;SDS011;2004;52.452;13.120;2022-11-20T02:46:33;19.00;;;11.23;;
3979;SDS011;2004;52.452;13.120;2022-11-20T02:54:25;17.57;;;10.50;;
3979;SDS011;2004;52.452;13.120;2022-11-20T03:02:15;19.27;;;11.20;;
3979;SDS011;2004;52.452;13.120;2022-11-20T03:10:06;18.00;;;10.87;;
3979;SDS011;2004;52.452;13.120;2022-11-20T03:17:57;19.63;;;12.00;;
3979;SDS011;2004;52.452;13.120;2022-11-20T03:25:48;20.30;;;11.47;;
3979;SDS011;2004;52.452;13.120;2022-11-20T03:33:39;20.20;;;11.80;;
3979;SDS011;2004;52.452;13.120;2022-11-20T03:41:31;18.80;;;11.17;;
3979;SDS011;2004;52.452;13.120;2022-11-20T03:49:26;21.73;;;11.10;;
3979;SDS011;2004;52.452;13.120;2022-11-20T03:57:17;15.13;;;10.43;;
3979;SDS011;2004;52.452;13.120;2022-11-20T04:05:07;22.23;;;12.37;;
3979;SDS011;2004;52.452;13.120;2022-11-20T04:12:58;29.83;;;12.43;;
3979;SDS011;2004;52.452;13.120;2022-11-20T04:20:48;19.63;;;11.87;;
3979;SDS011;2004;52.452;13.120;2022-11-20T04:28:39;24.50;;;17.20;;
3979;SDS011;2004;52.452;13.120;2022-11-20T04:36:29;21.50;;;13.37;;
3979;SDS011;2004;52.452;13.120;2022-11-20T04:44:20;19.20;;;11.57;;
3979;SDS011;2004;52.452;13.120;2022-11-20T04:52:11;21.70;;;11.60;;
3979;SDS011;2004;52.452;13.120;2022-11-20T05:00:02;22.83;;;12.77;;
3979;SDS011;2004;52.452;13.120;2022-11-20T05:07:55;22.23;;;12.50;;
3979;SDS011;2004;52.452;13.120;2022-11-20T05:15:49;17.43;;;11.70;;
3979;SDS011;2004;52.452;13.120;2022-11-20T05:23:39;30.57;;;13.27;;
3979;SDS011;2004;52.452;13.120;2022-11-20T05:31:30;21.63;;;11.83;;
3979;SDS011;2004;52.452;13.120;2022-11-20T05:39:21;20.37;;;12.23;;
3979;SDS011;2004;52.452;13.120;2022-11-20T05:47:12;18.37;;;11.50;;
3979;SDS011;2004;52.452;13.120;2022-11-20T05:55:02;20.47;;;10.90;;
3979;SDS011;2004;52.452;13.120;2022-11-20T06:02:53;17.80;;;11.87;;
3979;SDS011;2004;52.452;13.120;2022-11-20T06:10:43;18.43;;;12.10;;
3979;SDS011;2004;52.452;13.120;2022-11-20T06:18:34;23.00;;;12.73;;
3979;SDS011;2004;52.452;13.120;2022-11-20T06:26:25;20.57;;;12.90;;
3979;SDS011;2004;52.452;13.120;2022-11-20T06:34:17;19.37;;;11.97;;
3979;SDS011;2004;52.452;13.120;2022-11-20T06:42:07;23.07;;;12.90;;
3979;SDS011;2004;52.452;13.120;2022-11-20T06:49:58;19.57;;;11.20;;
3979;SDS011;2004;52.452;13.120;2022-11-20T06:57:50;23.80;;;13.10;;
3979;SDS011;2004;52.452;13.120;2022-11-20T07:05:40;24.50;;;13.13;;
3979;SDS011;2004;52.452;13.120;2022-11-20T07:13:31;21.07;;;12.70;;
3979;SDS011;2004;52.452;13.120;2022-11-20T07:21:22;18.40;;;12.20;;
3979;SDS011;2004;52.452;13.120;2022-11-20T07:29:12;18.90;;;12.97;;
3979;SDS011;2004;52.452;13.120;2022-11-20T07:37:03;19.50;;;12.13;;
3979;SDS011;2004;52.452;13.120;2022-11-20T07:44:53;25.00;;;13.90;;
3979;SDS011;2004;52.452;13.120;2022-11-20T07:52:44;22.47;;;13.30;;
3979;SDS011;2004;52.452;13.120;2022-11-20T08:00:34;22.53;;;12.80;;
3979;SDS011;2004;52.452;13.120;2022-11-20T08:08:25;26.20;;;13.37;;
3979;SDS011;2004;52.452;13.120;2022-11-20T08:16:15;23.73;;;13.60;;
3979;SDS011;2004;52.452;13.120;2022-11-20T08:24:06;29.23;;;14.40;;
3979;SDS011;2004;52.452;13.120;2022-11-20T08:31:57;20.57;;;11.63;;
3979;SDS011;2004;52.452;13.120;2022-11-20T08:39:48;25.17;;;12.93;;
3979;SDS011;2004;52.452;13.120;2022-11-20T08:47:39;23.07;;;12.73;;
3979;SDS011;2004;52.452;13.120;2022-11-20T08:55:29;22.87;;;12.80;;
3979;SDS011;2004;52.452;13.120;2022-11-20T09:03:20;23.40;;;12.27;;
3979;SDS011;2004;52.452;13.120;2022-11-20T09:11:10;20.43;;;10.93;;
3979;SDS011;2004;52.452;13.120;2022-11-20T09:19:01;22.53;;;11.80;;
3979;SDS011;2004;52.452;13.120;2022-11-20T09:26:51;20.63;;;12.07;;
3979;SDS011;2004;52.452;13.120;2022-11-20T09:34:42;19.03;;;12.00;;
3979;SDS011;2004;52.452;13.120;2022-11-20T09:50:49;19.43;;;11.30;;
3979;SDS011;2004;52.452;13.120;2022-11-20T09:58:49;18.20;;;11.00;;
3979;SDS011;2004;52.452;13.120;2022-11-20T10:06:43;14.23;;;10.07;;
3979;SDS011;2004;52.452;13.120;2022-11-20T10:14:49;18.00;;;10.60;;
3979;SDS011;2004;52.452;13.120;2022-11-20T10:23:04;15.60;;;9.97;;
3979;SDS011;2004;52.452;13.120;2022-11-20T10:31:25;15.40;;;10.00;;
3979;SDS011;2004;52.452;13.120;2022-11-20T10:39:35;15.60;;;10.63;;
3979;SDS011;2004;52.452;13.120;2022-11-20T10:47:34;13.17;;;8.60;;
3979;SDS011;2004;52.452;13.120;2022-11-20T10:55:39;13.63;;;9.20;;
3979;SDS011;2004;52.452;13.120;2022-11-20T11:03:31;8.80;;;7.40;;
3979;SDS011;2004;52.452;13.120;2022-11-20T11:11:23;12.07;;;8.47;;
3979;SDS011;2004;52.452;13.120;2022-11-20T11:19:19;19.53;;;8.83;;
3979;SDS011;2004;52.452;13.120;2022-11-20T11:27:14;16.50;;;8.60;;
3979;SDS011;2004;52.452;13.120;2022-11-20T11:35:18;13.07;;;8.33;;
3979;SDS011;2004;52.452;13.120;2022-11-20T11:43:28;14.07;;;8.67;;
3979;SDS011;2004;52.452;13.120;2022-11-20T11:51:44;10.83;;;7.47;;
3979;SDS011;2004;52.452;13.120;2022-11-20T12:00:03;12.03;;;7.20;;
3979;SDS011;2004;52.452;13.120;2022-11-20T12:08:06;10.90;;;6.23;;
3979;SDS011;2004;52.452;13.120;2022-11-20T12:16:25;8.50;;;5.80;;
3979;SDS011;2004;52.452;13.120;2022-11-20T12:32:44;10.90;;;6.80;;
3979;SDS011;2004;52.452;13.120;2022-11-20T12:40:52;16.97;;;8.57;;
3979;SDS011;2004;52.452;13.120;2022-11-20T12:49:11;13.80;;;8.63;;
3979;SDS011;2004;52.452;13.120;2022-11-20T12:57:27;14.27;;;9.13;;
3979;SDS011;2004;52.452;13.120;2022-11-20T13:21:58;13.83;;;7.47;;
3979;SDS011;2004;52.452;13.120;2022-11-20T13:29:58;12.67;;;7.73;;
3979;SDS011;2004;52.452;13.120;2022-11-20T13:46:03;11.10;;;6.40;;
3979;SDS011;2004;52.452;13.120;2022-11-20T13:54:07;10.13;;;5.90;;
3979;SDS011;2004;52.452;13.120;2022-11-20T14:02:16;10.73;;;6.67;;
3979;SDS011;2004;52.452;13.120;2022-11-20T14:10:25;11.10;;;7.30;;
3979;SDS011;2004;52.452;13.120;2022-11-20T14:18:21;19.03;;;7.27;;
3979;SDS011;2004;52.452;13.120;2022-11-20T14:26:14;17.33;;;7.97;;
3979;SDS011;2004;52.452;13.120;2022-11-20T14:34:12;16.17;;;8.27;;
3979;SDS011;2004;52.452;13.120;2022-11-20T14:42:16;12.80;;;8.70;;
3979;SDS011;2004;52.452;13.120;2022-11-20T14:50:16;20.03;;;9.23;;
3979;SDS011;2004;52.452;13.120;2022-11-20T14:58:21;13.67;;;8.03;;
3979;SDS011;2004;52.452;13.120;2022-11-20T15:06:13;14.13;;;8.17;;
3979;SDS011;2004;52.452;13.120;2022-11-20T15:14:04;15.23;;;8.20;;
3979;SDS011;2004;52.452;13.120;2022-11-20T15:21:56;14.83;;;9.17;;
3979;SDS011;2004;52.452;13.120;2022-11-20T15:29:47;15.73;;;9.70;;
3979;SDS011;2004;52.452;13.120;2022-11-20T15:37:40;16.23;;;8.80;;
3979;SDS011;2004;52.452;13.120;2022-11-20T15:45:39;12.47;;;7.70;;
3979;SDS011;2004;52.452;13.120;2022-11-20T15:53:38;13.10;;;7.40;;
3979;SDS011;2004;52.452;13.120;2022-11-20T16:01:30;16.30;;;9.70;;
3979;SDS011;2004;52.452;13.120;2022-11-20T16:09:20;17.10;;;9.47;;
3979;SDS011;2004;52.452;13.120;2022-11-20T16:17:11;11.63;;;7.43;;
3979;SDS011;2004;52.452;13.120;2022-11-20T16:25:02;11.60;;;7.80;;
3979;SDS011;2004;52.452;13.120;2022-11-20T16:32:54;14.30;;;7.80;;
3979;SDS011;2004;52.452;13.120;2022-11-20T16:40:44;13.13;;;7.50;;
3979;SDS011;2004;52.452;13.120;2022-11-20T16:48:35;11.63;;;7.40;;
3979;SDS011;2004;52.452;13.120;2022-11-20T16:56:26;12.37;;;8.00;;
3979;SDS011;2004;52.452;13.120;2022-11-20T17:04:17;9.53;;;7.23;;
3979;SDS011;2004;52.452;13.120;2022-11-20T17:12:08;18.53;;;9.53;;
3979;SDS011;2004;52.452;13.120;2022-11-20T17:19:59;15.60;;;8.00;;
3979;SDS011;2004;52.452;13.120;2022-11-20T17:27:50;12.10;;;7.63;;
3979;SDS011;2004;52.452;13.120;2022-11-20T17:35:40;18.40;;;9.10;;
3979;SDS011;2004;52.452;13.120;2022-11-20T17:43:31;14.03;;;9.83;;
3979;SDS011;2004;52.452;13.120;2022-11-20T17:51:24;16.17;;;10.00;;
3979;SDS011;2004;52.452;13.120;2022-11-20T17:59:17;16.13;;;9.37;;
3979;SDS011;2004;52.452;13.120;2022-11-20T18:07:07;13.63;;;9.30;;
3979;SDS011;2004;52.452;13.120;2022-11-20T18:14:58;14.33;;;9.77;;
3979;SDS011;2004;52.452;13.120;2022-11-20T18:22:49;14.10;;;7.60;;
3979;SDS011;2004;52.452;13.120;2022-11-20T18:30:39;12.30;;;8.40;;
3979;SDS011;2004;52.452;13.120;2022-11-20T18:38:30;14.10;;;9.13;;
3979;SDS011;2004;52.452;13.120;2022-11-20T18:46:20;55.80;;;21.93;;
3979;SDS011;2004;52.452;13.120;2022-11-20T18:54:11;17.80;;;10.53;;
3979;SDS011;2004;52.452;13.120;2022-11-20T19:02:03;19.50;;;11.07;;
3979;SDS011;2004;52.452;13.120;2022-11-20T19:09:53;18.80;;;10.70;;
3979;SDS011;2004;52.452;13.120;2022-11-20T19:17:44;19.57;;;11.13;;
3979;SDS011;2004;52.452;13.120;2022-11-20T19:25:35;18.03;;;8.20;;
3979;SDS011;2004;52.452;13.120;2022-11-20T19:33:25;16.90;;;10.07;;
3979;SDS011;2004;52.452;13.120;2022-11-20T19:41:20;14.80;;;9.93;;
3979;SDS011;2004;52.452;13.120;2022-11-20T19:49:17;13.60;;;8.90;;
3979;SDS011;2004;52.452;13.120;2022-11-20T19:57:08;16.00;;;8.67;;
3979;SDS011;2004;52.452;13.120;2022-11-20T20:04:58;15.50;;;8.97;;
3979;SDS011;2004;52.452;13.120;2022-11-20T20:12:49;14.87;;;10.03;;
3979;SDS011;2004;52.452;13.120;2022-11-20T20:20:40;17.50;;;10.23;;
3979;SDS011;2004;52.452;13.120;2022-11-20T20:28:30;14.20;;;9.37;;
3979;SDS011;2004;52.452;13.120;2022-11-20T20:36:22;13.90;;;9.87;;
3979;SDS011;2004;52.452;13.120;2022-11-20T20:44:13;18.87;;;10.70;;
3979;SDS011;2004;52.452;13.120;2022-11-20T20:52:22;19.30;;;10.20;;
3979;SDS011;2004;52.452;13.120;2022-11-20T21:00:16;11.60;;;9.10;;
3979;SDS011;2004;52.452;13.120;2022-11-20T21:08:07;11.20;;;8.87;;
3979;SDS011;2004;52.452;13.120;2022-11-20T21:16:14;13.10;;;8.63;;
3979;SDS011;2004;52.452;13.120;2022-11-20T21:24:06;15.10;;;8.83;;
3979;SDS011;2004;52.452;13.120;2022-11-20T21:31:57;13.13;;;8.90;;
3979;SDS011;2004;52.452;13.120;2022-11-20T21:39:47;16.00;;;9.37;;
3979;SDS011;2004;52.452;13.120;2022-11-20T21:47:40;12.70;;;8.20;;
3979;SDS011;2004;52.452;13.120;2022-11-20T21:55:31;24.07;;;13.47;;
3979;SDS011;2004;52.452;13.120;2022-11-20T22:03:21;13.20;;;8.60;;
3979;SDS011;2004;52.452;13.120;2022-11-20T22:11:13;13.00;;;8.73;;
3979;SDS011;2004;52.452;13.120;2022-11-20T22:19:09;14.90;;;8.83;;
3979;SDS011;2004;52.452;13.120;2022-11-20T22:26:59;17.13;;;8.53;;
3979;SDS011;2004;52.452;13.120;2022-11-20T22:34:50;16.33;;;9.17;;
3979;SDS011;2004;52.452;13.120;2022-11-20T22:42:44;28.03;;;13.50;;
3979;SDS011;2004;52.452;13.120;2022-11-20T22:50:35;17.87;;;10.60;;
3979;SDS011;2004;52.452;13.120;2022-11-20T22:58:29;19.10;;;11.10;;
3979;SDS011;2004;52.452;13.120;2022-11-20T23:06:20;17.37;;;10.50;;
3979;SDS011;2004;52.452;13.120;2022-11-20T23:14:12;19.97;;;11.90;;
3979;SDS011;2004;52.452;13.120;2022-11-20T23:22:04;21.23;;;12.37;;
3979;SDS011;2004;52.452;13.120;2022-11-20T23:29:54;20.33;;;11.60;;
3979;SDS011;2004;52.452;13.120;2022-11-20T23:37:47;23.53;;;12.70;;
3979;SDS011;2004;52.452;13.120;2022-11-20T23:45:38;24.57;;;12.63;;
3979;SDS011;2004;52.452;13.120;2022-11-20T23:53:29;22.93;;;11.77;;
